DFFD

Ouagadougou Airport

Ouagadougou, Burkina Faso
METAR DFFD 161000Z 07009KT 030V090 8000 NSC 30/06 Q1015 NOSIG
Observed Flight Rules
Dec-16 @ 10:00 UTC (59 minutes ago) Marginal Visual Flight Rules
Wind Visibility Clouds
70° at 9 knots 7,998 meters
  • Clear skies
Temperatures Readings
Current 30°C / 86°F
Dewpoint 6°C / 43°F
Humidity 22%
Altimeter 29.97" Hg
Pressure 1015 hPa
Elevation 306
METAR DFFD 161000Z 07009KT 030V090 8000 NSC 30/06 Q1015 NOSIG
Observed Flight Rules
Dec-16 @ 10:00 UTC
(59 minutes ago)
MVFR
Wind Visibility
70° at 9 knots 7,998 meters
Clouds
  • Clear skies
Temperature Dewpoint
30°C / 86°F 6°C / 43°F
Humidity Altimeter Pressure
22% 29.97" Hg 1015 hPa